Time;durP1;ratioP1;P1;durP2;ratioP2;P2;SDS_P1;SDS_P2;PMS_P1;PMS_P2;Temp;Humidity;BMP_temperature;BMP_pressure;BME280_temperature;BME280_humidity;BME280_pressure;Samples;Min_cycle;Max_cycle;Signal;HPM_P1;HPM_P2
2023/06/20 00:02:30;;;;;;;8.90;5.93;;;;;;;;;;10544848;28;20015;-71
2023/06/20 00:07:30;;;;;;;7.20;5.55;;;;;;;;;;10522880;28;20282;-71
2023/06/20 00:12:30;;;;;;;11.20;5.63;;;;;;;;;;10483946;28;20086;-71
2023/06/20 00:17:30;;;;;;;8.10;5.60;;;;;;;;;;10525388;28;20023;-71
2023/06/20 00:22:34;;;;;;;8.45;5.45;;;;;;;;;;10542979;28;20141;-71
2023/06/20 00:27:34;;;;;;;7.72;5.85;;;;;;;;;;10542960;28;20023;-71
2023/06/20 00:32:35;;;;;;;7.57;5.85;;;;;;;;;;10542886;28;20310;-71
2023/06/20 00:37:38;;;;;;;12.63;7.22;;;;;;;;;;10524894;28;20023;-71
2023/06/20 00:42:39;;;;;;;9.27;5.53;;;;;;;;;;10544073;28;20034;-71
2023/06/20 00:47:39;;;;;;;9.95;6.55;;;;;;;;;;10542077;28;20016;-71
2023/06/20 00:52:40;;;;;;;10.80;6.57;;;;;;;;;;10542463;28;20027;-71
2023/06/20 00:57:42;;;;;;;15.73;6.97;;;;;;;;;;10523908;28;20095;-71
2023/06/20 01:02:46;;;;;;;9.68;6.78;;;;;;;;;;10479313;28;20461;-71
2023/06/20 01:07:57;;;;;;;10.65;7.05;;;;;;;;;;10497246;28;20028;-71
2023/06/20 01:13:18;;;;;;;13.02;7.32;;;;;;;;;;10507527;28;20031;-71
2023/06/20 01:18:18;;;;;;;13.43;7.57;;;;;;;;;;10494554;28;20234;-71
2023/06/20 01:23:18;;;;;;;14.43;7.82;;;;;;;;;;10509202;28;20050;-71
2023/06/20 01:28:39;;;;;;;10.40;6.70;;;;;;;;;;10540964;28;20035;-71
2023/06/20 01:33:45;;;;;;;12.05;7.88;;;;;;;;;;10498388;28;20365;-71
2023/06/20 01:38:47;;;;;;;13.68;7.68;;;;;;;;;;10540566;28;20035;-72
2023/06/20 01:43:48;;;;;;;11.30;7.38;;;;;;;;;;10521815;28;20028;-71
2023/06/20 01:48:49;;;;;;;13.20;7.93;;;;;;;;;;10539824;28;20071;-71
2023/06/20 01:53:50;;;;;;;13.15;7.95;;;;;;;;;;10539928;28;20126;-72
2023/06/20 01:58:51;;;;;;;17.08;8.13;;;;;;;;;;10539482;28;20252;-71
2023/06/20 02:03:53;;;;;;;17.70;7.93;;;;;;;;;;10539599;28;20027;-71
2023/06/20 02:08:55;;;;;;;15.63;8.43;;;;;;;;;;10521594;28;20220;-72
2023/06/20 02:13:55;;;;;;;16.42;8.25;;;;;;;;;;10520961;28;20040;-71
2023/06/20 02:18:55;;;;;;;16.38;9.32;;;;;;;;;;10539237;28;20016;-71
2023/06/20 02:23:56;;;;;;;15.23;9.48;;;;;;;;;;10539215;28;20073;-71
2023/06/20 02:29:01;;;;;;;16.15;9.10;;;;;;;;;;10539068;28;20035;-73
2023/06/20 02:34:04;;;;;;;12.45;8.73;;;;;;;;;;10538657;28;20039;-71
2023/06/20 02:39:04;;;;;;;17.08;8.65;;;;;;;;;;10539106;28;20030;-72
2023/06/20 02:44:04;;;;;;;12.43;7.85;;;;;;;;;;10538927;28;20024;-71
2023/06/20 02:49:34;;;;;;;12.13;8.18;;;;;;;;;;10498008;28;20306;-71
2023/06/20 02:54:52;;;;;;;15.90;7.80;;;;;;;;;;10498300;28;20054;-71
2023/06/20 02:59:55;;;;;;;16.05;7.85;;;;;;;;;;10505197;28;20020;-73
2023/06/20 03:04:57;;;;;;;15.63;7.93;;;;;;;;;;10524318;28;20031;-71
2023/06/20 03:09:57;;;;;;;14.45;8.65;;;;;;;;;;10527584;28;20020;-72
2023/06/20 03:14:57;;;;;;;16.92;9.05;;;;;;;;;;10486436;28;20371;-72
2023/06/20 03:19:58;;;;;;;11.17;8.37;;;;;;;;;;10522823;28;20223;-72
2023/06/20 03:24:58;;;;;;;12.75;7.85;;;;;;;;;;10545526;28;20226;-72
2023/06/20 03:30:00;;;;;;;16.10;8.90;;;;;;;;;;10545611;28;20028;-72
2023/06/20 03:35:00;;;;;;;16.17;9.07;;;;;;;;;;10554360;28;20028;-71
2023/06/20 03:40:00;;;;;;;15.63;9.82;;;;;;;;;;10544988;28;20024;-71
2023/06/20 03:45:00;;;;;;;13.60;9.70;;;;;;;;;;10544687;28;20235;-73
2023/06/20 03:50:01;;;;;;;13.57;9.13;;;;;;;;;;10544404;28;20262;-72
2023/06/20 03:55:01;;;;;;;15.88;10.00;;;;;;;;;;10510546;28;20020;-72
2023/06/20 04:00:09;;;;;;;20.70;10.30;;;;;;;;;;10526072;28;20051;-72
2023/06/20 04:05:09;;;;;;;17.40;10.07;;;;;;;;;;10509608;28;20020;-72
2023/06/20 04:10:10;;;;;;;15.80;9.90;;;;;;;;;;10505194;28;20033;-74
2023/06/20 04:15:11;;;;;;;17.88;10.20;;;;;;;;;;10482974;28;20102;-74
2023/06/20 04:20:13;;;;;;;33.90;12.55;;;;;;;;;;10482909;28;20121;-71
2023/06/20 04:25:13;;;;;;;15.70;9.10;;;;;;;;;;10500108;28;20360;-74
2023/06/20 04:30:14;;;;;;;16.00;8.85;;;;;;;;;;10532532;28;20031;-78
2023/06/20 04:35:14;;;;;;;24.63;9.40;;;;;;;;;;10506807;28;20038;-73
2023/06/20 04:40:15;;;;;;;14.85;8.77;;;;;;;;;;10536579;28;20056;-72
2023/06/20 04:45:15;;;;;;;17.27;8.33;;;;;;;;;;10516678;28;20040;-73
2023/06/20 04:50:15;;;;;;;14.82;8.65;;;;;;;;;;10515151;28;20024;-73
2023/06/20 04:55:16;;;;;;;14.50;8.55;;;;;;;;;;10523094;28;20071;-73
2023/06/20 05:00:16;;;;;;;20.40;9.05;;;;;;;;;;10541572;28;20237;-74
2023/06/20 05:05:19;;;;;;;15.23;8.75;;;;;;;;;;10547956;28;20024;-74
2023/06/20 05:10:19;;;;;;;21.77;9.30;;;;;;;;;;10538114;28;20198;-73
2023/06/20 05:15:23;;;;;;;16.48;10.18;;;;;;;;;;10537058;28;20023;-73
2023/06/20 05:20:24;;;;;;;15.68;8.82;;;;;;;;;;10522357;28;20079;-74
2023/06/20 05:25:24;;;;;;;23.35;8.60;;;;;;;;;;10540300;28;20417;-73
2023/06/20 05:30:24;;;;;;;15.35;8.30;;;;;;;;;;10539672;28;20094;-73
2023/06/20 05:35:25;;;;;;;19.73;9.02;;;;;;;;;;10520129;28;20286;-74
2023/06/20 05:40:25;;;;;;;19.73;7.57;;;;;;;;;;10527660;28;20300;-74
2023/06/20 05:45:25;;;;;;;15.73;7.90;;;;;;;;;;10514871;28;20061;-74
2023/06/20 05:50:25;;;;;;;13.25;7.38;;;;;;;;;;10536613;28;20087;-74
2023/06/20 05:55:26;;;;;;;20.25;6.85;;;;;;;;;;10539488;28;20031;-74
2023/06/20 06:00:26;;;;;;;14.82;6.80;;;;;;;;;;10526413;28;20214;-74
2023/06/20 06:05:26;;;;;;;16.15;7.72;;;;;;;;;;10497757;28;20298;-74
2023/06/20 06:10:26;;;;;;;15.90;8.45;;;;;;;;;;10535944;28;20554;-74
2023/06/20 06:15:26;;;;;;;14.70;8.55;;;;;;;;;;10517651;28;20035;-74
2023/06/20 06:20:28;;;;;;;14.90;8.00;;;;;;;;;;10538944;28;20420;-74
2023/06/20 06:25:29;;;;;;;17.08;9.05;;;;;;;;;;10538806;28;20043;-74
2023/06/20 06:30:32;;;;;;;13.05;7.88;;;;;;;;;;10543101;28;20316;-74
2023/06/20 06:35:33;;;;;;;16.83;8.45;;;;;;;;;;10520405;28;20218;-74
2023/06/20 06:40:34;;;;;;;14.77;8.32;;;;;;;;;;10505005;28;20029;-74
2023/06/20 06:45:35;;;;;;;15.18;7.57;;;;;;;;;;10528048;28;20314;-74
2023/06/20 06:50:36;;;;;;;21.55;8.98;;;;;;;;;;10546791;28;20229;-75
2023/06/20 06:55:36;;;;;;;14.50;8.35;;;;;;;;;;10546727;28;20060;-75
2023/06/20 07:00:36;;;;;;;15.65;8.30;;;;;;;;;;10546623;28;20031;-75
2023/06/20 07:05:37;;;;;;;15.48;7.22;;;;;;;;;;10546580;28;20228;-76
2023/06/20 07:10:37;;;;;;;20.73;7.50;;;;;;;;;;10546386;28;20016;-75
2023/06/20 07:15:38;;;;;;;17.92;7.28;;;;;;;;;;10545694;28;20328;-76
2023/06/20 07:20:38;;;;;;;10.93;6.63;;;;;;;;;;10527080;28;20048;-74
2023/06/20 07:25:38;;;;;;;12.97;6.50;;;;;;;;;;10527586;28;20099;-74
2023/06/20 07:30:38;;;;;;;11.82;6.20;;;;;;;;;;10545334;28;20043;-74
2023/06/20 07:35:39;;;;;;;23.60;7.10;;;;;;;;;;10545079;28;20222;-74
2023/06/20 07:40:40;;;;;;;11.50;5.05;;;;;;;;;;10537396;28;20024;-74
2023/06/20 07:45:40;;;;;;;12.50;5.63;;;;;;;;;;10523881;28;20028;-74
2023/06/20 07:50:41;;;;;;;7.28;4.63;;;;;;;;;;10526208;28;20248;-74
2023/06/20 07:55:41;;;;;;;9.32;4.40;;;;;;;;;;10544708;28;20027;-74
2023/06/20 08:00:43;;;;;;;14.30;4.47;;;;;;;;;;10526428;28;20435;-74
2023/06/20 08:05:43;;;;;;;11.80;6.28;;;;;;;;;;10543789;28;20024;-74
2023/06/20 08:10:44;;;;;;;6.90;3.65;;;;;;;;;;10543432;28;20209;-74
2023/06/20 08:15:44;;;;;;;9.15;3.72;;;;;;;;;;10544024;28;20066;-73
2023/06/20 08:20:45;;;;;;;10.55;3.80;;;;;;;;;;10543000;28;20082;-74
2023/06/20 08:25:45;;;;;;;14.25;4.80;;;;;;;;;;10508250;28;20027;-74
2023/06/20 08:30:45;;;;;;;14.15;4.95;;;;;;;;;;10501415;28;20108;-74
2023/06/20 08:35:46;;;;;;;6.38;4.22;;;;;;;;;;10500648;28;20024;-74
2023/06/20 08:40:46;;;;;;;10.57;4.70;;;;;;;;;;10526661;28;20087;-74
2023/06/20 08:45:47;;;;;;;8.97;4.30;;;;;;;;;;10542426;28;20028;-74
2023/06/20 08:50:48;;;;;;;10.57;4.07;;;;;;;;;;10542085;28;20225;-74
2023/06/20 08:55:50;;;;;;;5.78;3.95;;;;;;;;;;10532238;28;20027;-74
2023/06/20 09:00:50;;;;;;;6.05;3.75;;;;;;;;;;10485538;28;20084;-74
2023/06/20 09:05:50;;;;;;;7.67;3.83;;;;;;;;;;10480133;28;20028;-73
2023/06/20 09:11:03;;;;;;;15.45;4.20;;;;;;;;;;10509444;28;20027;-74
2023/06/20 09:16:08;;;;;;;7.60;4.07;;;;;;;;;;10540866;28;20584;-73
2023/06/20 09:21:15;;;;;;;11.38;3.55;;;;;;;;;;10522530;28;20039;-74
2023/06/20 09:26:16;;;;;;;11.77;3.97;;;;;;;;;;10532310;28;20008;-74
2023/06/20 09:31:17;;;;;;;8.48;3.80;;;;;;;;;;10524910;28;20016;-74
2023/06/20 09:36:17;;;;;;;8.38;3.88;;;;;;;;;;10540356;28;20036;-74
2023/06/20 09:41:18;;;;;;;5.47;3.97;;;;;;;;;;10540218;28;20083;-74
2023/06/20 09:46:18;;;;;;;5.23;3.43;;;;;;;;;;10540188;28;20020;-74
2023/06/20 09:51:19;;;;;;;6.03;3.80;;;;;;;;;;10540146;28;20035;-74
2023/06/20 09:56:19;;;;;;;7.70;4.18;;;;;;;;;;10539351;28;20583;-75
2023/06/20 10:01:20;;;;;;;5.30;3.97;;;;;;;;;;10539531;28;20313;-74
2023/06/20 10:06:21;;;;;;;5.88;3.60;;;;;;;;;;10492381;28;20484;-74
2023/06/20 10:11:22;;;;;;;9.50;4.00;;;;;;;;;;10512443;28;20076;-74
2023/06/20 10:16:27;;;;;;;8.32;4.65;;;;;;;;;;10539639;28;20020;-74
2023/06/20 10:21:46;;;;;;;7.57;4.53;;;;;;;;;;10538727;28;20086;-74
2023/06/20 10:26:56;;;;;;;9.30;4.38;;;;;;;;;;10538658;28;20099;-72
2023/06/20 10:32:04;;;;;;;9.50;4.45;;;;;;;;;;10526328;28;20059;-71
2023/06/20 10:37:27;;;;;;;13.48;4.50;;;;;;;;;;10478059;28;20025;-71
2023/06/20 10:42:41;;;;;;;10.13;4.30;;;;;;;;;;10467719;28;20295;-71
2023/06/20 10:47:42;;;;;;;9.77;4.80;;;;;;;;;;10473233;28;20099;-71
2023/06/20 10:52:45;;;;;;;49.05;8.07;;;;;;;;;;10474970;28;20024;-71
2023/06/20 10:57:47;;;;;;;7.45;5.10;;;;;;;;;;10469624;28;20307;-72
2023/06/20 11:02:48;;;;;;;9.55;5.15;;;;;;;;;;10517779;28;20205;-71
2023/06/20 11:07:53;;;;;;;8.18;4.63;;;;;;;;;;10507211;28;20021;-72
2023/06/20 11:12:53;;;;;;;10.00;5.45;;;;;;;;;;10499510;28;20176;-72
2023/06/20 11:17:54;;;;;;;8.43;4.75;;;;;;;;;;10542627;28;20029;-72
2023/06/20 11:22:58;;;;;;;10.43;5.43;;;;;;;;;;10507802;28;20040;-72
2023/06/20 11:28:04;;;;;;;9.23;5.43;;;;;;;;;;10530033;28;20205;-72
2023/06/20 11:33:05;;;;;;;7.70;5.45;;;;;;;;;;10545372;28;20036;-71
2023/06/20 11:38:13;;;;;;;13.52;6.35;;;;;;;;;;10545283;28;20035;-72
2023/06/20 11:43:39;;;;;;;6.93;5.47;;;;;;;;;;10545088;28;20060;-71
2023/06/20 11:48:53;;;;;;;7.43;5.07;;;;;;;;;;10540778;28;20051;-71
2023/06/20 11:54:05;;;;;;;9.35;5.05;;;;;;;;;;10504344;28;20117;-72
2023/06/20 11:59:05;;;;;;;14.38;5.10;;;;;;;;;;10509616;28;20107;-72
2023/06/20 12:04:06;;;;;;;6.60;4.63;;;;;;;;;;10501988;28;20226;-71
2023/06/20 12:09:16;;;;;;;8.82;5.65;;;;;;;;;;10516186;28;20077;-71
2023/06/20 12:14:16;;;;;;;7.05;5.45;;;;;;;;;;10543457;28;20023;-72
2023/06/20 12:19:19;;;;;;;8.20;5.53;;;;;;;;;;10543843;28;20032;-71
2023/06/20 12:24:24;;;;;;;9.48;5.82;;;;;;;;;;10543816;28;20381;-72
2023/06/20 12:29:24;;;;;;;8.88;5.15;;;;;;;;;;10548906;28;20043;-72
2023/06/20 12:34:24;;;;;;;7.67;5.43;;;;;;;;;;10542586;28;20035;-72
2023/06/20 12:39:25;;;;;;;10.43;5.20;;;;;;;;;;10506494;28;20021;-74
2023/06/20 12:44:26;;;;;;;9.70;5.32;;;;;;;;;;10472967;28;20480;-74
2023/06/20 12:49:26;;;;;;;7.32;4.97;;;;;;;;;;10478828;28;20397;-73
2023/06/20 12:54:26;;;;;;;7.50;5.03;;;;;;;;;;10469549;28;20056;-74
2023/06/20 12:59:27;;;;;;;9.50;5.07;;;;;;;;;;10472933;28;20341;-74
2023/06/20 13:04:27;;;;;;;6.77;5.20;;;;;;;;;;10468433;28;20021;-73
2023/06/20 13:09:28;;;;;;;10.02;4.93;;;;;;;;;;10475856;28;20274;-74
2023/06/20 13:14:28;;;;;;;6.40;4.90;;;;;;;;;;10479219;28;20020;-74
2023/06/20 13:19:28;;;;;;;11.60;5.50;;;;;;;;;;10474495;28;20027;-74
2023/06/20 13:24:29;;;;;;;5.87;4.33;;;;;;;;;;10477609;28;20056;-74
2023/06/20 13:29:29;;;;;;;7.07;4.72;;;;;;;;;;10475185;28;20314;-75
2023/06/20 13:34:30;;;;;;;8.15;5.10;;;;;;;;;;10466550;28;20016;-75
2023/06/20 13:39:30;;;;;;;6.68;5.20;;;;;;;;;;10469470;28;20029;-75
2023/06/20 13:44:30;;;;;;;8.57;5.80;;;;;;;;;;10467973;28;20028;-75
2023/06/20 13:49:34;;;;;;;12.30;5.17;;;;;;;;;;10462722;28;20278;-75
2023/06/20 13:54:34;;;;;;;7.43;5.63;;;;;;;;;;10474503;28;20028;-75
2023/06/20 13:59:43;;;;;;;7.05;5.57;;;;;;;;;;10475560;28;20230;-75
2023/06/20 14:04:44;;;;;;;8.52;6.45;;;;;;;;;;10470315;28;20059;-70
2023/06/20 14:09:44;;;;;;;9.52;5.28;;;;;;;;;;10469028;28;20097;-70
2023/06/20 14:14:45;;;;;;;6.95;5.18;;;;;;;;;;10470169;28;20024;-68
2023/06/20 14:19:45;;;;;;;12.45;5.15;;;;;;;;;;10460158;28;20024;-72
2023/06/20 14:24:46;;;;;;;9.17;5.40;;;;;;;;;;10478571;28;20295;-72
2023/06/20 14:29:46;;;;;;;7.72;5.22;;;;;;;;;;10529810;28;20055;-72
2023/06/20 14:34:46;;;;;;;10.47;4.93;;;;;;;;;;10536203;28;20473;-72
2023/06/20 14:39:47;;;;;;;9.45;5.78;;;;;;;;;;10535516;28;20040;-72
2023/06/20 14:44:47;;;;;;;9.20;5.83;;;;;;;;;;10535272;28;20210;-72
2023/06/20 14:49:47;;;;;;;8.80;5.78;;;;;;;;;;10536726;28;20028;-72
2023/06/20 14:54:47;;;;;;;6.70;5.15;;;;;;;;;;10545940;28;20187;-72
2023/06/20 14:59:48;;;;;;;7.55;5.90;;;;;;;;;;10527930;28;20217;-72
2023/06/20 15:04:48;;;;;;;7.72;5.32;;;;;;;;;;10546392;28;20020;-73
2023/06/20 15:09:49;;;;;;;10.23;5.93;;;;;;;;;;10545949;28;20109;-72
2023/06/20 15:14:49;;;;;;;11.43;6.10;;;;;;;;;;10534116;28;20036;-72
2023/06/20 15:19:49;;;;;;;8.03;5.63;;;;;;;;;;10503994;28;20353;-72
2023/06/20 15:24:50;;;;;;;12.15;5.65;;;;;;;;;;10543862;28;20038;-72
2023/06/20 15:29:50;;;;;;;12.07;6.87;;;;;;;;;;10545183;28;20012;-72
2023/06/20 15:34:50;;;;;;;11.38;6.80;;;;;;;;;;10544251;28;20103;-71
2023/06/20 15:39:52;;;;;;;9.15;6.55;;;;;;;;;;10544873;28;20012;-71
2023/06/20 15:44:52;;;;;;;10.95;6.10;;;;;;;;;;10544617;28;20022;-72
2023/06/20 15:49:52;;;;;;;8.45;5.40;;;;;;;;;;10545096;28;20020;-71
2023/06/20 15:54:52;;;;;;;10.88;6.18;;;;;;;;;;10544436;28;20008;-72
2023/06/20 15:59:53;;;;;;;9.80;6.60;;;;;;;;;;10540367;28;20024;-72
2023/06/20 16:04:53;;;;;;;8.57;5.40;;;;;;;;;;10502272;28;20213;-71
2023/06/20 16:09:53;;;;;;;10.00;6.60;;;;;;;;;;10537785;28;20122;-73
2023/06/20 16:14:54;;;;;;;8.55;5.70;;;;;;;;;;10540541;28;20047;-71
2023/06/20 16:19:54;;;;;;;11.70;6.90;;;;;;;;;;10541761;28;20079;-73
2023/06/20 16:24:56;;;;;;;11.02;5.90;;;;;;;;;;10543407;28;20339;-74
2023/06/20 16:29:56;;;;;;;12.00;5.95;;;;;;;;;;10525149;28;20043;-74
2023/06/20 16:34:56;;;;;;;10.95;5.95;;;;;;;;;;10524293;28;20608;-74
2023/06/20 16:39:56;;;;;;;12.77;6.87;;;;;;;;;;10542845;28;20206;-74
2023/06/20 16:44:57;;;;;;;9.38;6.25;;;;;;;;;;10542787;28;20020;-74
2023/06/20 16:49:57;;;;;;;11.35;6.68;;;;;;;;;;10542039;28;20024;-73
2023/06/20 16:54:58;;;;;;;11.35;6.60;;;;;;;;;;10542377;28;20222;-73
2023/06/20 16:59:58;;;;;;;10.27;7.28;;;;;;;;;;10542517;28;20016;-73
2023/06/20 17:04:58;;;;;;;16.52;6.45;;;;;;;;;;10520771;28;20031;-73
2023/06/20 17:09:58;;;;;;;9.70;6.10;;;;;;;;;;10523497;28;20183;-73
2023/06/20 17:14:59;;;;;;;16.77;7.45;;;;;;;;;;10540481;28;20024;-73
2023/06/20 17:19:59;;;;;;;13.50;5.70;;;;;;;;;;10541082;28;20102;-74
2023/06/20 17:24:59;;;;;;;8.77;6.28;;;;;;;;;;10526936;28;20035;-73
2023/06/20 17:30:00;;;;;;;12.10;6.40;;;;;;;;;;10510353;28;20058;-73
2023/06/20 17:35:00;;;;;;;12.27;6.85;;;;;;;;;;10522373;28;20016;-73
2023/06/20 17:40:01;;;;;;;12.48;6.53;;;;;;;;;;10540052;28;20016;-73
2023/06/20 17:45:03;;;;;;;9.47;6.17;;;;;;;;;;10519104;28;20029;-73
2023/06/20 17:50:05;;;;;;;13.82;8.40;;;;;;;;;;10499520;28;20310;-73
2023/06/20 17:55:05;;;;;;;10.88;7.25;;;;;;;;;;10539946;28;20360;-74
2023/06/20 18:00:06;;;;;;;18.40;7.10;;;;;;;;;;10497365;28;20218;-72
2023/06/20 18:05:06;;;;;;;16.52;6.25;;;;;;;;;;10539938;28;20027;-75
2023/06/20 18:10:07;;;;;;;14.13;7.37;;;;;;;;;;10505984;28;20086;-75
2023/06/20 18:15:07;;;;;;;16.33;8.45;;;;;;;;;;10497593;28;20020;-75
2023/06/20 18:20:11;;;;;;;18.08;8.60;;;;;;;;;;10496564;28;20104;-74
2023/06/20 18:25:11;;;;;;;12.27;7.60;;;;;;;;;;10528297;28;20245;-75
2023/06/20 18:30:12;;;;;;;13.35;7.93;;;;;;;;;;10510945;28;20055;-76
2023/06/20 18:35:12;;;;;;;17.52;7.97;;;;;;;;;;10524301;28;20051;-73
2023/06/20 18:40:12;;;;;;;14.57;8.20;;;;;;;;;;10525503;28;20362;-76
2023/06/20 18:45:13;;;;;;;15.03;7.50;;;;;;;;;;10528310;28;20054;-75
2023/06/20 18:50:13;;;;;;;11.82;7.43;;;;;;;;;;10515883;28;20505;-73
2023/06/20 18:55:13;;;;;;;17.20;9.02;;;;;;;;;;10511535;28;20050;-72
2023/06/20 19:00:14;;;;;;;12.20;8.13;;;;;;;;;;10518093;28;20074;-72
2023/06/20 19:05:14;;;;;;;13.85;8.98;;;;;;;;;;10518230;28;20035;-73
2023/06/20 19:10:14;;;;;;;20.02;10.13;;;;;;;;;;10521675;28;20031;-73
2023/06/20 19:15:15;;;;;;;18.17;9.65;;;;;;;;;;10529174;28;20131;-73
2023/06/20 19:20:17;;;;;;;13.57;8.35;;;;;;;;;;10526875;28;20214;-75
2023/06/20 19:25:18;;;;;;;11.85;7.97;;;;;;;;;;10477359;28;20023;-73
2023/06/20 19:30:18;;;;;;;15.48;8.25;;;;;;;;;;10519946;28;20073;-74
2023/06/20 19:35:19;;;;;;;19.13;9.57;;;;;;;;;;10509375;28;20394;-74
2023/06/20 19:40:19;;;;;;;16.07;10.83;;;;;;;;;;10524200;28;20305;-71
2023/06/20 19:45:21;;;;;;;10.73;7.90;;;;;;;;;;10529915;28;20278;-73
2023/06/20 19:50:21;;;;;;;12.52;8.20;;;;;;;;;;10496558;28;20441;-70
2023/06/20 19:55:24;;;;;;;11.70;8.07;;;;;;;;;;10504082;28;20092;-76
2023/06/20 20:00:24;;;;;;;13.80;8.73;;;;;;;;;;10515684;28;20521;-84
2023/06/20 20:05:25;;;;;;;18.07;10.17;;;;;;;;;;10502633;28;20218;-81
2023/06/20 20:10:31;;;;;;;14.50;8.70;;;;;;;;;;10489079;28;20456;-78
2023/06/20 20:15:31;;;;;;;13.20;8.65;;;;;;;;;;10488713;28;20758;-78
2023/06/20 20:20:32;;;;;;;12.35;7.70;;;;;;;;;;10486730;28;20230;-71
2023/06/20 20:25:33;;;;;;;14.05;8.02;;;;;;;;;;10498136;28;20036;-74
2023/06/20 20:30:33;;;;;;;16.80;8.05;;;;;;;;;;10485280;28;20361;-80
2023/06/20 20:35:34;;;;;;;14.05;8.18;;;;;;;;;;10490548;28;20093;-78
2023/06/20 20:40:35;;;;;;;10.93;7.37;;;;;;;;;;10509901;28;20214;-76
2023/06/20 20:45:35;;;;;;;9.93;7.07;;;;;;;;;;10499009;28;20020;-82
2023/06/20 20:50:35;;;;;;;15.13;8.03;;;;;;;;;;10498844;28;20339;-78
2023/06/20 20:55:36;;;;;;;10.87;6.87;;;;;;;;;;10506069;28;20028;-85
2023/06/20 21:00:36;;;;;;;12.07;7.05;;;;;;;;;;10485540;28;20008;-82
2023/06/20 21:05:36;;;;;;;11.30;6.78;;;;;;;;;;10504360;28;20027;-85
2023/06/20 21:10:36;;;;;;;9.02;7.25;;;;;;;;;;10500232;28;20241;-80
2023/06/20 21:15:37;;;;;;;12.07;6.50;;;;;;;;;;10500219;28;20191;-81
2023/06/20 21:20:37;;;;;;;9.82;7.63;;;;;;;;;;10501189;28;20040;-81
2023/06/20 21:25:38;;;;;;;10.48;7.22;;;;;;;;;;10498230;28;20219;-81
2023/06/20 21:30:38;;;;;;;10.30;7.05;;;;;;;;;;10496908;28;20028;-79
2023/06/20 21:35:38;;;;;;;9.70;6.57;;;;;;;;;;10496379;28;20039;-75
2023/06/20 21:40:39;;;;;;;11.27;6.87;;;;;;;;;;10498246;28;20295;-72
2023/06/20 21:45:39;;;;;;;9.02;6.55;;;;;;;;;;10483932;28;20285;-73
2023/06/20 21:50:39;;;;;;;10.05;6.60;;;;;;;;;;10495783;28;20067;-73
2023/06/20 21:55:42;;;;;;;11.17;7.60;;;;;;;;;;10498653;28;20017;-85
2023/06/20 22:00:43;;;;;;;11.60;5.97;;;;;;;;;;10500423;28;20027;-76
2023/06/20 22:05:43;;;;;;;14.40;7.63;;;;;;;;;;10491449;28;20277;-79
2023/06/20 22:10:43;;;;;;;11.80;7.00;;;;;;;;;;10503190;28;20023;-89
2023/06/20 22:15:44;;;;;;;15.07;7.15;;;;;;;;;;10487349;28;20058;-81
2023/06/20 22:20:44;;;;;;;12.82;7.03;;;;;;;;;;10494591;28;20080;-77
2023/06/20 22:25:44;;;;;;;10.07;7.22;;;;;;;;;;10498419;28;20336;-77
2023/06/20 22:30:44;;;;;;;10.65;7.60;;;;;;;;;;10498131;28;20101;-79
2023/06/20 22:35:45;;;;;;;13.93;9.13;;;;;;;;;;10486906;28;20299;-76
2023/06/20 22:40:46;;;;;;;14.27;9.17;;;;;;;;;;10490371;28;20048;-77
2023/06/20 22:45:46;;;;;;;11.85;7.25;;;;;;;;;;10495951;28;20351;-72
2023/06/20 22:50:47;;;;;;;12.05;8.00;;;;;;;;;;10482734;28;20085;-81
2023/06/20 22:55:47;;;;;;;15.10;8.40;;;;;;;;;;10499994;28;20036;-68
2023/06/20 23:00:47;;;;;;;12.30;7.38;;;;;;;;;;10520875;28;20352;-69
2023/06/20 23:05:47;;;;;;;10.88;7.80;;;;;;;;;;10535858;28;20024;-69
2023/06/20 23:10:50;;;;;;;11.70;8.57;;;;;;;;;;10535799;28;20047;-69
2023/06/20 23:15:51;;;;;;;12.68;8.27;;;;;;;;;;10526407;28;20210;-69
2023/06/20 23:20:51;;;;;;;11.77;8.03;;;;;;;;;;10543101;28;20040;-69
2023/06/20 23:25:52;;;;;;;13.23;8.20;;;;;;;;;;10524960;28;20372;-69
2023/06/20 23:30:53;;;;;;;10.80;8.30;;;;;;;;;;10528073;28;20017;-69
2023/06/20 23:35:53;;;;;;;8.93;7.22;;;;;;;;;;10522082;28;20677;-68
2023/06/20 23:40:56;;;;;;;12.75;9.05;;;;;;;;;;10498547;28;20016;-69
2023/06/20 23:45:58;;;;;;;12.98;9.57;;;;;;;;;;10505929;28;20336;-69
2023/06/20 23:50:59;;;;;;;11.90;8.23;;;;;;;;;;10499074;28;20294;-69
2023/06/20 23:55:59;;;;;;;11.50;7.77;;;;;;;;;;10513473;28;20229;-68
